Pagina principale
METAR-TAF:

METAR-TAF

Aeroporti :

Cannes, Francia

latitudine: 43-33N, longitudine: 006-57E, altezza: 3 m

Osservazione

Il bollettino è stato emesso 13 minuti fa, alle 01:00 UTC
Vento 4 kt da direzioni variabili
Temperature 18°C
Umidità 45%
Pressione 1006 hPa
Visibilità 10 km o più
nessuna nube inferiore a 1500 m e nessun cumulonembo

METAR: LFMD 160100Z AUTO VRB04KT CAVOK 18/06 Q1006

Ora: 03:13 (01:13 UTC)

Previsione

Il bollettino è stato emesso 11 ore e 13 minuti fa, alle 14:00 UTC
Previsione valida dal 15 alle 15 UTC al 16 alle 15 UTC
Vento 5 kt da est
Visibilità 10 km o più
nessuna nube inferiore a 1500 m e nessun cumulonembo
Evoluzione graduale
dal 15 alle 15 UTC al 15 alle 19 UTC
Vento 15 kt da ovest con raffiche fino a 25 kt

TAF: LFMD 151400Z 1515/1615 08005KT CAVOK BECMG 1515/1519 27015G25KT

Osservazioni e previsioni meteorologiche di più di 4000 aeroporti (messaggi METAR e TAF).

Le stazioni disponibili sono rappresentate dai dischi gialli e rossi sulla carta.

Puntare il mouse per vedere il nome della stazione.

Clicca sopra per visualizzare le osservazioni e previsioni meteorologiche.

Per cambiare la mappa : fare clic sui pulsanti verdi con una croce nera per ingrandire, il pulsante verde con un trattino per diminuire, o sulla freccia verde per le mappe adiacenti.


METAR-TAF: